createdAt,value
2018-06-23T00:03:11.210Z,38.27
2018-06-23T00:08:15.311Z,27.13
2018-06-23T00:13:18.822Z,34.47
2018-06-23T00:18:22.051Z,28.70
2018-06-23T00:23:25.488Z,23.53
2018-06-23T00:28:28.393Z,28.27
2018-06-23T00:33:31.633Z,23.07
2018-06-23T00:38:35.118Z,28.93
2018-06-23T00:43:38.881Z,31.00
2018-06-23T00:48:42.111Z,23.83
2018-06-23T00:53:45.537Z,30.70
2018-06-23T00:58:59.457Z,29.13
2018-06-23T01:04:02.573Z,28.47
2018-06-23T01:09:07.884Z,33.60
2018-06-23T01:14:10.771Z,28.17
2018-06-23T01:19:14.487Z,30.53
2018-06-23T01:24:17.398Z,23.43
2018-06-23T01:29:20.260Z,26.20
2018-06-23T01:34:23.167Z,32.17
2018-06-23T01:39:26.068Z,33.17
2018-06-23T01:44:28.940Z,34.27
2018-06-23T01:49:32.277Z,41.77
2018-06-23T01:54:35.687Z,26.27
2018-06-23T01:59:38.922Z,22.70
2018-06-23T02:04:41.877Z,24.13
2018-06-23T02:09:45.013Z,24.33
2018-06-23T02:14:54.565Z,19.82
2018-06-23T02:20:03.700Z,16.00
2018-06-23T02:25:12.387Z,20.23
2018-06-23T02:30:20.637Z,17.77
2018-06-23T02:35:23.516Z,27.07
2018-06-23T02:40:26.519Z,17.83
2018-06-23T02:45:29.740Z,28.37
2018-06-23T02:50:32.905Z,21.87
2018-06-23T02:55:36.517Z,25.93
2018-06-23T03:00:39.432Z,14.43
2018-06-23T03:05:42.568Z,12.33
2018-06-23T03:10:45.945Z,27.33
2018-06-23T03:15:49.085Z,20.23
2018-06-23T03:20:52.158Z,17.73
2018-06-23T03:25:55.365Z,13.30
2018-06-23T03:30:58.260Z,14.83
2018-06-23T03:36:01.497Z,11.30
2018-06-23T03:41:04.900Z,20.50
2018-06-23T03:46:08.141Z,19.60
2018-06-23T03:51:11.213Z,17.63
2018-06-23T03:56:14.792Z,19.33
2018-06-23T04:01:17.728Z,16.47
2018-06-23T04:06:20.754Z,20.27
2018-06-23T04:11:24.160Z,12.77
2018-06-23T04:16:27.515Z,24.40
2018-06-23T04:21:31.123Z,18.30
2018-06-23T04:26:33.995Z,26.33
2018-06-23T04:31:36.875Z,29.60
2018-06-23T04:36:39.962Z,19.23
2018-06-23T04:41:42.927Z,15.07
2018-06-23T04:46:46.464Z,14.33
2018-06-23T04:51:49.465Z,24.80
2018-06-23T04:56:53.101Z,15.70
2018-06-23T05:01:56.728Z,20.23
2018-06-23T05:06:59.922Z,20.97
2018-06-23T05:12:03.052Z,10.70
2018-06-23T05:17:06.204Z,10.40
2018-06-23T05:22:09.629Z,19.13
2018-06-23T05:27:12.937Z,29.77
2018-06-23T05:32:16.709Z,21.53
2018-06-23T05:37:19.581Z,23.73
2018-06-23T05:42:22.499Z,32.43
2018-06-23T05:47:25.413Z,19.97
2018-06-23T05:52:28.568Z,22.00
2018-06-23T05:57:31.748Z,19.07
2018-06-23T06:02:34.942Z,32.17
2018-06-23T06:07:37.843Z,21.97
2018-06-23T06:12:41.037Z,22.27
2018-06-23T06:17:43.929Z,21.00
2018-06-23T06:22:47.251Z,24.43
2018-06-23T06:27:50.349Z,24.30
2018-06-23T06:32:53.216Z,23.47
2018-06-23T06:37:56.312Z,25.87
2018-06-23T06:42:59.299Z,18.80
2018-06-23T06:48:02.233Z,19.33
2018-06-23T06:53:05.153Z,16.03
2018-06-23T06:58:08.096Z,12.60
2018-06-23T07:03:10.969Z,19.23
2018-06-23T07:08:14.152Z,15.20
2018-06-23T07:13:17.061Z,18.37
2018-06-23T07:18:19.959Z,18.07
2018-06-23T07:23:23.896Z,21.23
2018-06-23T07:28:27.265Z,21.10
2018-06-23T07:33:30.160Z,15.03
2018-06-23T07:38:33.400Z,25.17
2018-06-23T07:43:36.316Z,20.67
2018-06-23T07:48:39.235Z,17.60
2018-06-23T07:53:42.389Z,18.60
2018-06-23T07:58:45.348Z,18.77
2018-06-23T08:03:48.253Z,25.17
2018-06-23T08:08:51.446Z,23.60
2018-06-23T08:13:54.328Z,8.00
2018-06-23T08:18:57.248Z,12.03
2018-06-23T08:24:00.367Z,15.27
2018-06-23T08:29:03.552Z,24.33
2018-06-23T08:34:06.559Z,29.03
2018-06-23T08:39:09.425Z,21.97
2018-06-23T08:44:12.651Z,20.77
2018-06-23T08:49:15.547Z,19.23
2018-06-23T08:54:18.450Z,29.33
2018-06-23T08:59:21.662Z,10.17
2018-06-23T09:04:24.740Z,17.73
2018-06-23T09:09:27.652Z,21.60
2018-06-23T09:14:30.880Z,16.83
2018-06-23T09:19:33.911Z,17.00
2018-06-23T09:24:37.080Z,26.30
2018-06-23T09:29:39.985Z,14.13
2018-06-23T09:34:42.864Z,14.60
2018-06-23T09:39:48.712Z,21.63
2018-06-23T09:44:51.957Z,13.03
2018-06-23T09:49:54.841Z,10.00
2018-06-23T09:54:57.780Z,17.23
2018-06-23T10:00:01.080Z,19.33
2018-06-23T10:05:04.057Z,14.03
2018-06-23T10:10:06.995Z,17.50
2018-06-23T10:15:10.282Z,14.63
2018-06-23T10:20:13.171Z,11.63
2018-06-23T10:25:16.224Z,17.43
2018-06-23T10:30:19.349Z,19.53
2018-06-23T10:35:22.323Z,13.67
2018-06-23T10:40:25.216Z,14.83
2018-06-23T10:45:28.505Z,8.73
2018-06-23T10:50:31.447Z,5.20
2018-06-23T10:55:34.369Z,6.97
2018-06-23T11:00:37.387Z,15.87
2018-06-23T11:05:40.257Z,9.60
2018-06-23T11:10:43.332Z,9.70
2018-06-23T11:15:47.087Z,10.93
2018-06-23T11:20:50.443Z,9.50
2018-06-23T11:25:53.509Z,5.97
2018-06-23T11:30:56.397Z,6.13
2018-06-23T11:36:02.963Z,8.17
2018-06-23T11:41:10.499Z,7.13
2018-06-23T11:46:14.369Z,7.67
2018-06-23T11:51:17.688Z,2.40
2018-06-23T11:56:20.580Z,10.90
2018-06-23T12:01:24.013Z,2.43
2018-06-23T12:06:26.856Z,4.30
2018-06-23T12:11:32.841Z,2.77
2018-06-23T12:16:36.040Z,4.63
2018-06-23T12:21:39.533Z,5.00
2018-06-23T12:26:42.579Z,10.33
2018-06-23T12:31:46.541Z,3.67
2018-06-23T12:36:49.564Z,2.77
2018-06-23T12:41:52.482Z,4.30
2018-06-23T12:46:55.439Z,2.27
2018-06-23T12:51:58.444Z,5.07
2018-06-23T12:57:01.652Z,5.87
2018-06-23T13:02:04.554Z,1.80
2018-06-23T13:07:07.529Z,5.50
2018-06-23T13:12:10.392Z,3.70
2018-06-23T13:17:17.918Z,3.73
2018-06-23T13:22:25.376Z,5.40
2018-06-23T13:27:29.214Z,4.20
2018-06-23T13:33:34.839Z,2.70
2018-06-23T13:38:37.720Z,3.23
2018-06-23T13:43:40.631Z,3.17
2018-06-23T13:48:43.572Z,2.73
2018-06-23T13:53:46.492Z,3.17
2018-06-23T13:58:49.432Z,4.10
2018-06-23T14:03:53.196Z,11.13
2018-06-23T14:08:56.056Z,4.90
2018-06-23T14:13:59.016Z,4.43
2018-06-23T14:19:01.916Z,4.93
2018-06-23T14:24:04.883Z,5.73
2018-06-23T14:29:07.818Z,8.67
2018-06-23T14:34:11.027Z,8.20
2018-06-23T14:39:14.181Z,10.60
2018-06-23T14:44:17.169Z,17.03
2018-06-23T14:49:20.206Z,17.20
2018-06-23T14:54:23.089Z,12.73
2018-06-23T14:59:25.967Z,10.20
2018-06-23T15:04:29.154Z,13.90
2018-06-23T15:09:43.407Z,15.23
2018-06-23T15:14:46.420Z,15.40
2018-06-23T15:19:49.356Z,26.30
2018-06-23T15:24:52.256Z,28.57
2018-06-23T15:29:55.650Z,30.97
2018-06-23T15:34:58.880Z,24.67
2018-06-23T15:40:02.047Z,26.40
2018-06-23T15:45:04.994Z,30.93
2018-06-23T15:50:07.894Z,9.27
2018-06-23T15:55:10.786Z,11.53
2018-06-23T16:00:13.704Z,16.97
2018-06-23T16:05:16.939Z,16.77
2018-06-23T16:10:23.248Z,14.93
2018-06-23T16:15:26.481Z,20.00
2018-06-23T16:20:29.396Z,25.57
2018-06-23T16:25:32.372Z,34.60
2018-06-23T16:30:36.464Z,30.50
2018-06-23T16:35:39.425Z,32.70
2018-06-23T16:40:42.312Z,37.70
2018-06-23T16:45:45.531Z,37.97
2018-06-23T16:50:49.418Z,28.10
2018-06-23T16:55:52.361Z,49.03
2018-06-23T17:00:55.370Z,20.90
2018-06-23T17:05:58.511Z,19.17
2018-06-23T17:11:01.503Z,38.67
2018-06-23T17:16:04.756Z,49.37
2018-06-23T17:21:07.649Z,45.00
2018-06-23T17:26:10.557Z,46.73
2018-06-23T17:31:13.589Z,47.40
2018-06-23T17:36:16.560Z,52.13
2018-06-23T17:41:19.477Z,45.20
2018-06-23T17:46:24.232Z,66.50
2018-06-23T17:51:27.420Z,64.80
2018-06-23T17:56:30.681Z,65.03
2018-06-23T18:01:33.832Z,56.63
2018-06-23T18:06:37.376Z,56.60
2018-06-23T18:11:40.975Z,54.73
2018-06-23T18:16:44.303Z,63.43
2018-06-23T18:21:47.842Z,55.87
2018-06-23T18:26:50.993Z,51.67
2018-06-23T18:31:54.679Z,58.17
2018-06-23T18:36:58.073Z,62.77
2018-06-23T18:42:01.332Z,76.97
2018-06-23T18:47:05.263Z,71.80
2018-06-23T18:52:11.276Z,73.13
2018-06-23T18:57:14.752Z,63.43
2018-06-23T19:02:17.923Z,81.77
2018-06-23T19:07:21.425Z,76.17
2018-06-23T19:12:24.848Z,87.97
2018-06-23T19:17:28.112Z,52.10
2018-06-23T19:22:37.648Z,73.07
2018-06-23T19:27:41.375Z,59.17
2018-06-23T19:32:44.867Z,61.87
2018-06-23T19:37:48.391Z,65.00
2018-06-23T19:42:51.396Z,50.53
2018-06-23T19:47:54.685Z,46.60
2018-06-23T19:52:58.090Z,55.50
2018-06-23T19:58:01.180Z,58.73
2018-06-23T20:03:04.629Z,50.30
2018-06-23T20:08:08.055Z,37.27
2018-06-23T20:13:11.628Z,49.47
2018-06-23T20:18:14.523Z,50.70
2018-06-23T20:23:17.667Z,60.53
2018-06-23T20:28:21.269Z,69.73
2018-06-23T20:33:25.309Z,53.00
2018-06-23T20:38:28.309Z,59.90
2018-06-23T20:43:31.252Z,72.73
2018-06-23T20:48:34.212Z,61.73
2018-06-23T20:53:37.152Z,67.03
2018-06-23T20:58:40.554Z,61.23
2018-06-23T21:03:43.523Z,82.47
2018-06-23T21:08:51.473Z,79.40
2018-06-23T21:13:54.490Z,74.37
2018-06-23T21:18:57.516Z,60.00
2018-06-23T21:24:00.465Z,78.80
2018-06-23T21:29:03.688Z,75.03
2018-06-23T21:34:06.799Z,66.13
2018-06-23T21:39:10.752Z,72.67
2018-06-23T21:44:13.951Z,66.27
2018-06-23T21:49:16.880Z,53.00
2018-06-23T21:54:19.817Z,48.87
2018-06-23T21:59:22.734Z,66.93
2018-06-23T22:04:25.904Z,52.27
2018-06-23T22:09:29.624Z,67.20
2018-06-23T22:14:33.400Z,58.83
2018-06-23T22:19:37.725Z,60.43
2018-06-23T22:24:40.763Z,56.20
2018-06-23T22:29:43.844Z,50.27
2018-06-23T22:34:47.460Z,43.03
2018-06-23T22:39:51.238Z,46.03
2018-06-23T22:44:54.097Z,39.70
2018-06-23T22:49:57.305Z,54.87
2018-06-23T22:55:00.313Z,23.10
2018-06-23T23:00:06.780Z,26.53
2018-06-23T23:05:10.469Z,25.90
2018-06-23T23:10:13.804Z,32.50
2018-06-23T23:15:16.688Z,26.13
2018-06-23T23:20:19.558Z,30.90
2018-06-23T23:25:23.348Z,30.33
2018-06-23T23:30:26.196Z,25.37
2018-06-23T23:35:30.105Z,31.87
2018-06-23T23:40:32.988Z,22.13
2018-06-23T23:45:36.364Z,34.97
2018-06-23T23:50:39.320Z,40.50
2018-06-23T23:55:42.390Z,28.67
